createdAt,value
2022-12-31T00:00:38.626Z,90.36
2022-12-31T00:01:40.192Z,90.60
2022-12-31T00:02:41.977Z,90.74
2022-12-31T00:03:44.444Z,90.03
2022-12-31T00:04:46.003Z,90.14
2022-12-31T00:05:47.552Z,91.38
2022-12-31T00:06:49.085Z,92.03
2022-12-31T00:07:50.661Z,91.73
2022-12-31T00:08:54.331Z,92.73
2022-12-31T00:09:55.914Z,93.96
2022-12-31T00:10:57.472Z,94.25
2022-12-31T00:11:59.031Z,95.37
2022-12-31T00:13:00.680Z,96.74
2022-12-31T00:14:02.400Z,97.90
2022-12-31T00:15:04.338Z,97.78
2022-12-31T00:16:12.375Z,99.34
2022-12-31T00:17:14.301Z,99.72
2022-12-31T00:18:15.872Z,99.19
2022-12-31T00:19:17.415Z,99.71
2022-12-31T00:20:18.954Z,99.96
2022-12-31T00:21:21.616Z,99.15
2022-12-31T00:22:23.206Z,98.67
2022-12-31T00:23:24.817Z,98.51
2022-12-31T00:24:30.987Z,98.77
2022-12-31T00:25:35.169Z,97.59
2022-12-31T00:26:36.775Z,96.13
2022-12-31T00:27:38.327Z,96.06
2022-12-31T00:28:40.855Z,95.10
2022-12-31T00:29:42.445Z,95.24
2022-12-31T00:30:44.040Z,94.92
2022-12-31T00:31:45.566Z,93.21
2022-12-31T00:32:47.111Z,92.70
2022-12-31T00:33:48.692Z,92.18
2022-12-31T00:34:50.284Z,91.76
2022-12-31T00:35:51.806Z,90.98
2022-12-31T00:36:53.370Z,90.33
2022-12-31T00:37:54.930Z,89.34
2022-12-31T00:38:58.191Z,88.71
2022-12-31T00:39:59.764Z,87.62
2022-12-31T00:41:01.486Z,87.01
2022-12-31T00:42:03.030Z,86.30
2022-12-31T00:43:04.583Z,86.69
2022-12-31T00:44:06.198Z,85.28
2022-12-31T00:45:08.319Z,85.71
2022-12-31T00:46:11.487Z,85.75
2022-12-31T00:47:13.031Z,85.95
2022-12-31T00:48:14.553Z,86.23
2022-12-31T00:49:16.534Z,86.18
2022-12-31T00:50:18.248Z,86.41
2022-12-31T00:51:22.784Z,86.40
2022-12-31T00:52:24.336Z,85.85
2022-12-31T00:53:26.890Z,86.58
2022-12-31T00:54:28.386Z,87.53
2022-12-31T00:55:30.979Z,87.42
2022-12-31T00:56:32.737Z,86.87
2022-12-31T00:57:34.272Z,86.65
2022-12-31T00:58:36.013Z,88.26
2022-12-31T00:59:37.557Z,89.35
2022-12-31T01:00:39.499Z,91.34
2022-12-31T01:01:42.597Z,92.53
2022-12-31T01:02:44.433Z,94.52
2022-12-31T01:03:46.941Z,93.71
2022-12-31T01:04:48.532Z,93.97
2022-12-31T01:05:50.549Z,94.06
2022-12-31T01:06:52.151Z,94.96
2022-12-31T01:07:53.759Z,95.44
2022-12-31T01:08:55.755Z,95.80
2022-12-31T01:09:57.347Z,95.32
2022-12-31T01:11:18.723Z,94.91
2022-12-31T01:12:20.252Z,93.35
2022-12-31T01:13:21.991Z,92.64
2022-12-31T01:14:23.520Z,92.98
2022-12-31T01:15:25.092Z,92.74
2022-12-31T01:16:48.027Z,92.71
2022-12-31T01:17:49.593Z,92.67
2022-12-31T01:18:51.721Z,92.30
2022-12-31T01:19:53.342Z,92.17
2022-12-31T01:20:54.904Z,91.58
2022-12-31T01:21:56.618Z,92.56
2022-12-31T01:22:58.549Z,92.75
2022-12-31T01:24:00.428Z,93.04
2022-12-31T01:25:01.920Z,93.42
2022-12-31T01:26:06.244Z,93.53
2022-12-31T01:27:07.775Z,94.59
2022-12-31T01:28:09.554Z,94.61
2022-12-31T01:29:12.379Z,95.16
2022-12-31T01:30:14.026Z,94.48
2022-12-31T01:31:17.763Z,94.86
2022-12-31T01:32:19.391Z,95.29
2022-12-31T01:33:20.971Z,94.21
2022-12-31T01:34:22.505Z,94.93
2022-12-31T01:35:24.726Z,94.49
2022-12-31T01:36:28.828Z,94.28
2022-12-31T01:37:30.384Z,93.55
2022-12-31T01:38:32.024Z,94.32
2022-12-31T01:39:33.615Z,95.02
2022-12-31T01:40:39.967Z,94.24
2022-12-31T01:41:44.661Z,95.27
2022-12-31T01:42:54.179Z,95.11
2022-12-31T01:43:58.593Z,95.85
2022-12-31T01:45:00.248Z,95.60
2022-12-31T01:46:01.966Z,96.55
2022-12-31T01:47:05.880Z,97.66
2022-12-31T01:48:12.287Z,98.20
2022-12-31T01:49:21.380Z,96.97
2022-12-31T01:50:28.618Z,97.41
2022-12-31T01:51:33.347Z,95.62
2022-12-31T01:52:39.023Z,96.02
2022-12-31T01:53:41.013Z,94.77
2022-12-31T01:54:55.703Z,93.73
2022-12-31T01:56:00.178Z,94.16
2022-12-31T01:57:02.095Z,92.82
2022-12-31T01:58:09.590Z,92.98
2022-12-31T01:59:14.046Z,92.56
2022-12-31T02:00:16.834Z,91.81
2022-12-31T02:01:24.964Z,90.46
2022-12-31T02:02:26.947Z,90.30
2022-12-31T02:03:29.377Z,89.93
2022-12-31T02:04:31.024Z,90.48
2022-12-31T02:05:46.953Z,90.45
2022-12-31T02:07:01.278Z,90.62
2022-12-31T02:08:03.746Z,89.44
2022-12-31T02:09:05.395Z,89.97
2022-12-31T02:10:07.368Z,90.10
2022-12-31T02:11:30.457Z,89.47
2022-12-31T02:12:32.183Z,88.85
2022-12-31T02:13:34.821Z,88.38
2022-12-31T02:14:41.715Z,88.38
2022-12-31T02:16:04.243Z,87.89
2022-12-31T02:17:15.138Z,88.81
2022-12-31T02:18:34.173Z,88.14
2022-12-31T02:20:12.909Z,89.41
2022-12-31T02:21:39.468Z,88.98
2022-12-31T02:22:52.995Z,89.26
2022-12-31T02:24:07.795Z,89.18
2022-12-31T02:25:12.050Z,90.26
2022-12-31T02:26:47.734Z,90.58
2022-12-31T02:27:58.312Z,91.95
2022-12-31T02:29:21.685Z,92.51
2022-12-31T02:30:25.057Z,92.37
2022-12-31T02:31:39.553Z,93.04
2022-12-31T02:32:56.132Z,94.32
2022-12-31T02:34:06.275Z,93.71
2022-12-31T02:35:13.595Z,94.97
2022-12-31T02:36:23.689Z,95.14
2022-12-31T02:37:28.991Z,96.13
2022-12-31T02:38:39.097Z,95.99
2022-12-31T02:39:43.217Z,96.12
2022-12-31T02:40:45.599Z,96.87
2022-12-31T02:41:51.586Z,96.97
2022-12-31T02:42:55.579Z,96.14
2022-12-31T02:43:57.433Z,96.26
2022-12-31T02:44:59.006Z,96.25
2022-12-31T02:46:41.570Z,96.92
2022-12-31T02:48:13.565Z,95.69
2022-12-31T02:49:23.636Z,93.98
2022-12-31T02:50:58.026Z,94.20
2022-12-31T02:52:09.384Z,93.95
2022-12-31T02:53:19.618Z,93.08
2022-12-31T02:54:51.402Z,93.38
2022-12-31T02:56:03.805Z,92.04
2022-12-31T02:57:11.357Z,92.03
2022-12-31T02:58:56.441Z,92.67
2022-12-31T03:00:22.206Z,91.22
2022-12-31T03:01:52.037Z,91.05
2022-12-31T03:02:55.798Z,91.08
2022-12-31T03:04:16.046Z,91.69
2022-12-31T03:05:21.550Z,90.58
2022-12-31T03:06:23.115Z,91.00
2022-12-31T03:07:30.107Z,90.53
2022-12-31T03:08:31.684Z,89.88
2022-12-31T03:09:34.457Z,89.22
2022-12-31T03:10:36.370Z,88.84
2022-12-31T03:11:56.759Z,88.28
2022-12-31T03:12:58.487Z,87.31
2022-12-31T03:14:00.010Z,87.60
2022-12-31T03:15:01.774Z,88.10
2022-12-31T03:16:03.367Z,88.40
2022-12-31T03:17:04.991Z,88.85
2022-12-31T03:18:17.695Z,88.20
2022-12-31T03:19:37.813Z,89.06
2022-12-31T03:21:08.775Z,87.98
2022-12-31T03:22:28.416Z,88.58
2022-12-31T03:23:42.424Z,87.90
2022-12-31T03:25:02.586Z,87.87
2022-12-31T03:26:12.382Z,88.15
2022-12-31T03:27:14.010Z,88.68
2022-12-31T03:28:18.635Z,87.84
2022-12-31T03:29:20.298Z,87.97
2022-12-31T03:30:23.456Z,88.70
2022-12-31T03:31:25.026Z,87.25
2022-12-31T03:32:26.608Z,86.80
2022-12-31T03:33:37.698Z,86.98
2022-12-31T03:34:39.283Z,86.57
2022-12-31T03:35:42.489Z,86.36
2022-12-31T03:36:44.049Z,86.63
2022-12-31T03:37:47.077Z,86.46
2022-12-31T03:38:52.663Z,86.82
2022-12-31T03:39:54.423Z,87.36
2022-12-31T03:40:56.234Z,86.69
2022-12-31T03:41:57.805Z,87.57
2022-12-31T03:42:59.382Z,87.99
2022-12-31T03:44:00.940Z,88.53
2022-12-31T03:45:02.565Z,89.24
2022-12-31T03:46:04.225Z,89.65
2022-12-31T03:47:05.799Z,91.23
2022-12-31T03:48:09.370Z,91.62
2022-12-31T03:49:10.956Z,91.99
2022-12-31T03:50:15.016Z,93.06
2022-12-31T03:51:16.912Z,94.19
2022-12-31T03:52:18.546Z,93.87
2022-12-31T03:53:20.308Z,95.28
2022-12-31T03:54:21.876Z,95.22
2022-12-31T03:55:23.676Z,94.87
2022-12-31T03:56:25.268Z,94.15
2022-12-31T03:57:26.861Z,94.33
2022-12-31T03:58:28.367Z,94.35
2022-12-31T03:59:29.917Z,94.42
2022-12-31T04:00:31.493Z,93.79
2022-12-31T04:01:33.157Z,93.74
2022-12-31T04:02:34.948Z,94.02
2022-12-31T04:03:36.523Z,94.13
2022-12-31T04:04:38.074Z,94.46
2022-12-31T04:05:40.346Z,94.54
2022-12-31T04:06:41.882Z,94.88
2022-12-31T04:07:43.563Z,95.30
2022-12-31T04:08:45.067Z,95.39
2022-12-31T04:09:46.609Z,96.14
2022-12-31T04:10:48.187Z,96.25
2022-12-31T04:11:49.867Z,95.61
2022-12-31T04:12:51.457Z,96.70
2022-12-31T04:13:53.004Z,96.89
2022-12-31T04:14:54.616Z,96.99
2022-12-31T04:15:56.194Z,97.57
2022-12-31T04:16:57.776Z,97.93
2022-12-31T04:17:59.369Z,97.28
2022-12-31T04:19:00.901Z,96.96
2022-12-31T04:20:03.402Z,96.61
2022-12-31T04:21:05.637Z,96.46
2022-12-31T04:22:07.492Z,96.56
2022-12-31T04:23:09.027Z,96.63
2022-12-31T04:24:11.152Z,96.16
2022-12-31T04:25:13.024Z,95.87
2022-12-31T04:26:14.599Z,95.59
2022-12-31T04:27:16.225Z,94.99
2022-12-31T04:28:17.799Z,94.79
2022-12-31T04:29:19.376Z,95.12
2022-12-31T04:30:20.945Z,96.24
2022-12-31T04:31:22.677Z,96.73
2022-12-31T04:32:24.252Z,96.12
2022-12-31T04:33:25.856Z,95.65
2022-12-31T04:34:27.942Z,94.27
2022-12-31T04:35:29.521Z,94.78
2022-12-31T04:36:31.034Z,94.33
2022-12-31T04:37:32.639Z,93.65
2022-12-31T04:38:34.599Z,94.79
2022-12-31T04:39:36.162Z,94.66
2022-12-31T04:40:57.641Z,95.19
2022-12-31T04:41:59.247Z,95.80
2022-12-31T04:43:00.749Z,94.90
2022-12-31T04:44:02.326Z,94.92
2022-12-31T04:45:04.780Z,95.51
2022-12-31T04:46:07.262Z,96.14
2022-12-31T04:47:08.852Z,97.17
2022-12-31T04:48:10.381Z,96.75
2022-12-31T04:49:12.514Z,97.98
2022-12-31T04:50:14.165Z,97.53
2022-12-31T04:51:15.791Z,97.66
2022-12-31T04:52:17.383Z,97.16
2022-12-31T04:53:18.925Z,97.22
2022-12-31T04:54:20.461Z,96.84
2022-12-31T04:55:22.001Z,97.37
2022-12-31T04:56:24.300Z,96.77
2022-12-31T04:57:25.856Z,95.96
2022-12-31T04:58:28.089Z,94.70
2022-12-31T04:59:29.576Z,94.60
2022-12-31T05:00:31.100Z,93.98
2022-12-31T05:01:33.465Z,94.59
2022-12-31T05:02:35.288Z,94.07
2022-12-31T05:03:37.671Z,93.61
2022-12-31T05:04:39.267Z,94.09
2022-12-31T05:05:42.841Z,93.27
2022-12-31T05:06:44.431Z,93.23
2022-12-31T05:07:46.004Z,93.00
2022-12-31T05:08:48.506Z,92.57
2022-12-31T05:09:50.034Z,92.01
2022-12-31T05:10:51.596Z,92.23
2022-12-31T05:11:53.158Z,92.05
2022-12-31T05:12:54.767Z,90.83
2022-12-31T05:13:56.288Z,90.31
2022-12-31T05:14:57.805Z,91.17
2022-12-31T05:15:59.377Z,90.28
2022-12-31T05:17:01.207Z,90.04
2022-12-31T05:18:03.383Z,89.35
2022-12-31T05:19:06.476Z,88.56
2022-12-31T05:20:08.483Z,89.22
2022-12-31T05:21:10.270Z,89.02
2022-12-31T05:22:29.902Z,89.27
2022-12-31T05:23:31.476Z,89.06
2022-12-31T05:24:33.159Z,88.65
2022-12-31T05:25:35.043Z,88.74
2022-12-31T05:26:36.643Z,88.68
2022-12-31T05:27:38.338Z,88.65
2022-12-31T05:28:39.966Z,87.38
2022-12-31T05:29:41.486Z,86.66
2022-12-31T05:30:43.716Z,86.71
2022-12-31T05:31:45.299Z,85.76
2022-12-31T05:32:47.199Z,86.84
2022-12-31T05:33:48.725Z,86.41
2022-12-31T05:34:50.334Z,86.63
2022-12-31T05:35:51.940Z,86.51
2022-12-31T05:36:53.507Z,87.43
2022-12-31T05:37:55.154Z,87.94
2022-12-31T05:38:56.743Z,87.44
2022-12-31T05:39:58.411Z,87.36
2022-12-31T05:41:05.542Z,87.97
2022-12-31T05:42:07.046Z,88.25
2022-12-31T05:43:08.774Z,87.17
2022-12-31T05:44:10.944Z,87.85
2022-12-31T05:45:13.529Z,88.29
2022-12-31T05:46:16.220Z,86.75
2022-12-31T05:47:17.878Z,87.14
2022-12-31T05:48:19.482Z,87.75
2022-12-31T05:49:21.065Z,87.42
2022-12-31T05:50:22.623Z,86.79
2022-12-31T05:51:24.115Z,87.80
2022-12-31T05:52:25.798Z,88.60
2022-12-31T05:53:27.445Z,88.41
2022-12-31T05:54:29.011Z,88.84
2022-12-31T05:55:30.541Z,88.49
2022-12-31T05:56:32.372Z,87.71
2022-12-31T05:57:34.151Z,87.04
2022-12-31T05:58:35.768Z,87.71
2022-12-31T05:59:37.553Z,87.28
2022-12-31T06:00:39.896Z,86.56
2022-12-31T06:01:41.528Z,87.58
2022-12-31T06:02:43.336Z,87.03
2022-12-31T06:03:45.646Z,86.58
2022-12-31T06:04:47.341Z,87.52
2022-12-31T06:05:48.886Z,86.39
2022-12-31T06:06:50.534Z,86.80
2022-12-31T06:07:52.065Z,86.48
2022-12-31T06:08:53.651Z,87.57
2022-12-31T06:09:55.200Z,87.87
2022-12-31T06:10:56.725Z,88.05
2022-12-31T06:11:58.261Z,87.85
2022-12-31T06:12:59.840Z,89.32
2022-12-31T06:14:01.376Z,88.75
2022-12-31T06:15:03.902Z,88.58
2022-12-31T06:16:07.309Z,88.65
2022-12-31T06:17:08.909Z,87.58
2022-12-31T06:18:10.452Z,88.43
2022-12-31T06:19:12.015Z,88.11
2022-12-31T06:20:13.622Z,87.73
2022-12-31T06:21:15.893Z,87.89
2022-12-31T06:22:17.532Z,87.24
2022-12-31T06:23:19.041Z,87.02
2022-12-31T06:24:20.631Z,86.73
2022-12-31T06:25:22.195Z,86.31
2022-12-31T06:26:23.766Z,86.20
2022-12-31T06:27:25.303Z,86.28
2022-12-31T06:28:26.881Z,86.51
2022-12-31T06:29:28.467Z,85.68
2022-12-31T06:30:30.141Z,85.87
2022-12-31T06:31:31.843Z,85.60
2022-12-31T06:32:34.984Z,85.61
2022-12-31T06:33:37.031Z,85.79
2022-12-31T06:34:38.637Z,86.44
2022-12-31T06:35:40.201Z,85.75
2022-12-31T06:36:41.760Z,86.46
2022-12-31T06:37:43.385Z,86.58
2022-12-31T06:38:45.036Z,87.98
2022-12-31T06:39:46.680Z,90.06
2022-12-31T06:40:48.209Z,90.92
2022-12-31T06:41:49.787Z,92.55
2022-12-31T06:42:54.669Z,93.50
2022-12-31T06:43:59.400Z,95.24
2022-12-31T06:45:01.016Z,96.14
2022-12-31T06:46:07.421Z,96.28
2022-12-31T06:47:08.961Z,97.37
2022-12-31T06:48:10.709Z,97.09
2022-12-31T06:49:12.470Z,98.36
2022-12-31T06:50:14.041Z,98.48
2022-12-31T06:51:18.133Z,99.25
2022-12-31T06:52:20.535Z,99.40
2022-12-31T06:53:22.723Z,98.96
2022-12-31T06:54:24.342Z,99.96
2022-12-31T06:55:26.407Z,99.48
2022-12-31T06:56:34.696Z,99.54
2022-12-31T06:57:36.651Z,98.82
2022-12-31T06:58:38.406Z,98.34
2022-12-31T06:59:40.312Z,99.19
2022-12-31T07:01:03.661Z,98.57
2022-12-31T07:02:17.398Z,98.97
2022-12-31T07:03:32.462Z,98.59
2022-12-31T07:05:12.579Z,97.89
2022-12-31T07:06:22.875Z,97.44
2022-12-31T07:07:43.875Z,97.02
2022-12-31T07:09:30.274Z,95.13
2022-12-31T07:10:47.275Z,95.55
2022-12-31T07:12:01.210Z,96.16
2022-12-31T07:13:26.147Z,94.71
2022-12-31T07:14:27.638Z,95.29
2022-12-31T07:15:48.555Z,94.36
2022-12-31T07:17:06.327Z,92.76
2022-12-31T07:18:22.763Z,93.35
2022-12-31T07:19:42.424Z,92.50
2022-12-31T07:20:44.277Z,92.77
2022-12-31T07:21:47.563Z,92.70
2022-12-31T07:22:49.413Z,92.72
2022-12-31T07:23:51.232Z,91.62
2022-12-31T07:24:53.139Z,91.67
2022-12-31T07:26:11.281Z,91.46
2022-12-31T07:27:29.908Z,91.10
2022-12-31T07:29:11.908Z,91.37
2022-12-31T07:30:21.402Z,90.42
2022-12-31T07:31:33.917Z,88.99
2022-12-31T07:33:09.199Z,88.86
2022-12-31T07:34:21.140Z,87.60
2022-12-31T07:35:58.126Z,86.26
2022-12-31T07:37:08.451Z,85.16
2022-12-31T07:38:37.955Z,84.24
2022-12-31T07:40:04.354Z,83.96
2022-12-31T07:41:36.889Z,84.19
2022-12-31T07:43:09.702Z,83.15
2022-12-31T07:44:20.007Z,83.44
2022-12-31T07:45:31.605Z,83.19
2022-12-31T07:46:39.148Z,83.37
2022-12-31T07:47:40.895Z,83.59
2022-12-31T07:48:42.929Z,83.02
2022-12-31T07:49:45.165Z,82.73
2022-12-31T07:50:47.047Z,82.37
2022-12-31T07:51:49.002Z,81.36
2022-12-31T07:52:50.816Z,81.50
2022-12-31T07:53:52.403Z,81.78
2022-12-31T07:54:53.968Z,81.08
2022-12-31T07:56:01.078Z,80.61
2022-12-31T07:57:02.763Z,80.30
2022-12-31T07:58:22.888Z,81.18
2022-12-31T07:59:39.361Z,80.39
2022-12-31T08:00:41.088Z,80.41
2022-12-31T08:02:03.145Z,79.20
2022-12-31T08:03:30.947Z,80.52
2022-12-31T08:04:54.235Z,80.73
2022-12-31T08:06:22.062Z,81.39
2022-12-31T08:08:08.340Z,81.61
2022-12-31T08:09:34.966Z,81.32
2022-12-31T08:10:47.987Z,80.92
2022-12-31T08:12:00.541Z,82.27
2022-12-31T08:13:05.918Z,83.72
2022-12-31T08:14:14.160Z,85.14
2022-12-31T08:15:24.110Z,83.86
2022-12-31T08:16:30.037Z,83.10
2022-12-31T08:17:32.954Z,84.73
2022-12-31T08:19:00.020Z,85.74
2022-12-31T08:20:06.510Z,86.23
2022-12-31T08:21:11.049Z,86.86
2022-12-31T08:22:25.922Z,85.51
2022-12-31T08:23:46.061Z,84.70
2022-12-31T08:25:08.879Z,84.00
2022-12-31T08:26:37.928Z,85.29
2022-12-31T08:27:55.786Z,86.25
2022-12-31T08:29:22.047Z,86.25
2022-12-31T08:30:32.247Z,84.27
2022-12-31T08:31:51.290Z,83.80
2022-12-31T08:33:25.283Z,84.48
2022-12-31T08:34:41.186Z,83.29
2022-12-31T08:35:58.125Z,82.92
2022-12-31T08:37:20.818Z,81.94
2022-12-31T08:39:07.294Z,84.55
2022-12-31T08:40:42.197Z,85.93
2022-12-31T08:41:49.801Z,86.37
2022-12-31T08:43:10.133Z,85.15
2022-12-31T08:44:59.244Z,86.02
2022-12-31T08:46:01.549Z,85.22
2022-12-31T08:47:03.257Z,84.84
2022-12-31T08:48:32.827Z,83.24
2022-12-31T08:49:35.801Z,83.95
2022-12-31T08:50:37.626Z,82.93
2022-12-31T08:51:39.495Z,83.61
2022-12-31T08:52:41.400Z,83.87
2022-12-31T08:53:43.177Z,82.56
2022-12-31T08:54:44.939Z,82.42
2022-12-31T08:55:49.800Z,81.94
2022-12-31T08:56:51.335Z,82.40
2022-12-31T08:58:04.396Z,81.39
2022-12-31T08:59:29.301Z,80.80
2022-12-31T09:00:31.907Z,81.42
2022-12-31T09:01:52.945Z,82.63
2022-12-31T09:03:03.068Z,82.09
2022-12-31T09:04:31.113Z,81.28
2022-12-31T09:05:58.822Z,82.32
2022-12-31T09:07:03.520Z,81.63
2022-12-31T09:08:28.478Z,81.04
2022-12-31T09:09:48.765Z,81.52
2022-12-31T09:11:23.425Z,82.38
2022-12-31T09:12:49.651Z,82.67
2022-12-31T09:14:21.616Z,83.09
2022-12-31T09:15:23.163Z,82.37
2022-12-31T09:16:39.203Z,82.45
2022-12-31T09:17:44.247Z,82.59
2022-12-31T09:18:45.836Z,81.61
2022-12-31T09:19:47.610Z,82.41
2022-12-31T09:20:49.333Z,81.98
2022-12-31T09:21:51.184Z,81.55
2022-12-31T09:22:54.296Z,81.70
2022-12-31T09:23:56.180Z,81.86
2022-12-31T09:24:58.124Z,81.85
2022-12-31T09:26:24.977Z,80.53
2022-12-31T09:27:36.524Z,79.87
2022-12-31T09:28:44.668Z,79.38
2022-12-31T09:29:51.141Z,78.42
2022-12-31T09:31:03.185Z,78.98
2022-12-31T09:32:16.744Z,78.20
2022-12-31T09:33:43.863Z,78.00
2022-12-31T09:34:56.863Z,77.53
2022-12-31T09:36:03.612Z,77.31
2022-12-31T09:37:17.556Z,76.89
2022-12-31T09:38:31.111Z,76.58
2022-12-31T09:39:43.251Z,76.68
2022-12-31T09:41:03.197Z,76.09
2022-12-31T09:42:13.160Z,77.14
2022-12-31T09:43:23.663Z,76.87
2022-12-31T09:44:47.137Z,76.57
2022-12-31T09:46:32.694Z,77.52
2022-12-31T09:47:49.445Z,78.32
2022-12-31T09:49:01.066Z,77.38
2022-12-31T09:50:21.074Z,77.30
2022-12-31T09:51:29.986Z,77.49
2022-12-31T09:53:12.440Z,76.91
2022-12-31T09:54:16.825Z,76.92
2022-12-31T09:55:47.643Z,78.08
2022-12-31T09:57:20.941Z,77.47
2022-12-31T09:58:41.122Z,78.93
2022-12-31T09:59:53.224Z,77.45
2022-12-31T10:01:32.813Z,78.15
2022-12-31T10:02:59.754Z,77.08
2022-12-31T10:04:19.464Z,77.75
2022-12-31T10:05:39.552Z,77.47
2022-12-31T10:06:43.855Z,78.80
2022-12-31T10:08:01.052Z,79.18
2022-12-31T10:09:09.430Z,78.14
2022-12-31T10:10:30.996Z,76.94
2022-12-31T10:11:38.497Z,75.74
2022-12-31T10:12:45.650Z,75.45
2022-12-31T10:13:55.176Z,74.33
2022-12-31T10:15:12.801Z,74.51
2022-12-31T10:16:39.182Z,75.71
2022-12-31T10:18:17.937Z,75.07
2022-12-31T10:19:42.754Z,74.96
2022-12-31T10:21:21.435Z,73.50
2022-12-31T10:22:44.041Z,73.91
2022-12-31T10:23:50.381Z,74.77
2022-12-31T10:25:38.369Z,75.60
2022-12-31T10:27:14.166Z,76.20
2022-12-31T10:28:56.017Z,76.27
2022-12-31T10:29:59.174Z,76.18
2022-12-31T10:31:12.826Z,75.59
2022-12-31T10:32:16.234Z,75.58
2022-12-31T10:33:53.737Z,73.24
2022-12-31T10:35:18.464Z,74.73
2022-12-31T10:36:27.004Z,74.54
2022-12-31T10:37:41.145Z,73.47
2022-12-31T10:39:24.611Z,73.71
2022-12-31T10:40:51.148Z,74.01
2022-12-31T10:42:19.796Z,74.55
2022-12-31T10:44:10.292Z,74.13
2022-12-31T10:45:23.893Z,74.24
2022-12-31T10:46:34.653Z,73.78
2022-12-31T10:47:44.929Z,73.64
2022-12-31T10:48:52.711Z,72.96
2022-12-31T10:50:15.779Z,73.06
2022-12-31T10:51:29.496Z,72.23
2022-12-31T10:52:43.093Z,72.57
2022-12-31T10:54:06.464Z,73.32
2022-12-31T10:55:24.894Z,73.00
2022-12-31T10:57:07.052Z,74.07
2022-12-31T10:58:46.193Z,73.58
2022-12-31T11:00:12.282Z,73.35
2022-12-31T11:01:35.099Z,72.21
2022-12-31T11:02:40.034Z,71.95
2022-12-31T11:04:20.532Z,72.23
2022-12-31T11:06:00.831Z,72.21
2022-12-31T11:07:24.175Z,71.75
2022-12-31T11:08:53.401Z,72.36
2022-12-31T11:10:52.138Z,72.13
2022-12-31T11:12:21.087Z,70.70
2022-12-31T11:13:41.345Z,70.88
2022-12-31T11:14:51.058Z,71.69
2022-12-31T11:15:55.409Z,72.10
2022-12-31T11:17:28.423Z,71.94
2022-12-31T11:18:35.756Z,71.41
2022-12-31T11:20:10.706Z,71.26
2022-12-31T11:21:44.368Z,71.10
2022-12-31T11:23:22.700Z,69.63
2022-12-31T11:24:52.400Z,69.09
2022-12-31T11:26:21.889Z,69.76
2022-12-31T11:27:35.493Z,71.28
2022-12-31T11:28:45.893Z,70.23
2022-12-31T11:30:21.231Z,71.67
2022-12-31T11:31:22.762Z,70.98
2022-12-31T11:32:53.451Z,71.03
2022-12-31T11:34:00.550Z,71.08
2022-12-31T11:35:23.408Z,71.92
2022-12-31T11:36:58.888Z,71.62
2022-12-31T11:38:30.177Z,71.87
2022-12-31T11:39:47.161Z,71.47
2022-12-31T11:41:05.506Z,71.44
2022-12-31T11:42:27.152Z,70.85
2022-12-31T11:43:50.530Z,70.64
2022-12-31T11:45:15.188Z,70.47
2022-12-31T11:46:16.852Z,70.90
2022-12-31T11:48:28.367Z,70.83
2022-12-31T11:49:32.553Z,70.57
2022-12-31T11:51:01.430Z,70.61
2022-12-31T11:52:46.765Z,71.82
2022-12-31T11:54:25.486Z,71.53
2022-12-31T11:55:59.450Z,72.98
2022-12-31T11:57:33.983Z,72.49
2022-12-31T11:58:35.932Z,70.91
2022-12-31T11:59:37.447Z,72.04
2022-12-31T12:00:40.820Z,72.55
2022-12-31T12:01:51.434Z,72.26
2022-12-31T12:03:06.507Z,72.12
2022-12-31T12:04:10.532Z,71.79
2022-12-31T12:05:15.121Z,71.65
2022-12-31T12:06:24.717Z,71.28
2022-12-31T12:07:28.045Z,71.91
2022-12-31T12:08:32.618Z,71.49
2022-12-31T12:09:35.276Z,71.32
2022-12-31T12:10:44.202Z,71.46
2022-12-31T12:11:45.823Z,71.16
2022-12-31T12:12:47.371Z,70.73
2022-12-31T12:13:49.318Z,70.44
2022-12-31T12:14:54.653Z,69.86
2022-12-31T12:15:59.937Z,70.55
2022-12-31T12:17:05.523Z,70.49
2022-12-31T12:18:13.968Z,70.52
2022-12-31T12:19:19.170Z,70.00
2022-12-31T12:20:33.623Z,70.04
2022-12-31T12:21:48.515Z,70.48
2022-12-31T12:22:52.855Z,69.85
2022-12-31T12:24:05.980Z,70.18
2022-12-31T12:25:17.628Z,70.35
2022-12-31T12:26:34.762Z,70.51
2022-12-31T12:27:36.634Z,69.08
2022-12-31T12:28:46.297Z,70.29
2022-12-31T12:29:48.081Z,70.10
2022-12-31T12:31:01.608Z,68.94
2022-12-31T12:32:16.085Z,69.48
2022-12-31T12:33:19.797Z,69.06
2022-12-31T12:34:25.527Z,68.09
2022-12-31T12:35:33.641Z,68.28
2022-12-31T12:36:35.306Z,68.05
2022-12-31T12:37:37.039Z,68.02
2022-12-31T12:38:39.399Z,67.24
2022-12-31T12:39:40.944Z,67.30
2022-12-31T12:41:01.940Z,67.22
2022-12-31T12:42:07.412Z,67.17
2022-12-31T12:43:23.293Z,66.79
2022-12-31T12:44:24.809Z,66.19
2022-12-31T12:45:41.311Z,66.46
2022-12-31T12:46:49.709Z,67.04
2022-12-31T12:48:05.585Z,66.17
2022-12-31T12:49:08.153Z,65.55
2022-12-31T12:50:37.928Z,64.41
2022-12-31T12:52:16.860Z,64.11
2022-12-31T12:53:45.047Z,64.52
2022-12-31T12:55:12.809Z,64.16
2022-12-31T12:56:36.042Z,64.45
2022-12-31T12:57:58.680Z,64.58
2022-12-31T12:59:19.488Z,63.96
2022-12-31T13:00:29.709Z,63.75
2022-12-31T13:01:36.791Z,63.63
2022-12-31T13:02:56.922Z,63.19
2022-12-31T13:04:35.632Z,63.50
2022-12-31T13:05:59.423Z,63.83
2022-12-31T13:07:33.193Z,63.88
2022-12-31T13:09:03.115Z,64.25
2022-12-31T13:10:13.697Z,64.34
2022-12-31T13:11:43.231Z,64.27
2022-12-31T13:13:26.092Z,64.40
2022-12-31T13:14:27.687Z,64.59
2022-12-31T13:15:44.009Z,64.51
2022-12-31T13:17:04.177Z,64.45
2022-12-31T13:18:44.634Z,64.92
2022-12-31T13:20:03.571Z,65.65
2022-12-31T13:21:21.950Z,64.78
2022-12-31T13:22:28.297Z,64.52
2022-12-31T13:23:41.847Z,64.23
2022-12-31T13:25:05.143Z,63.94
2022-12-31T13:26:27.942Z,65.61
2022-12-31T13:27:40.733Z,64.45
2022-12-31T13:28:45.587Z,64.89
2022-12-31T13:29:48.829Z,64.52
2022-12-31T13:31:01.737Z,64.25
2022-12-31T13:32:10.962Z,64.38
2022-12-31T13:33:26.235Z,63.96
2022-12-31T13:34:35.028Z,63.67
2022-12-31T13:35:48.146Z,63.71
2022-12-31T13:36:52.168Z,63.63
2022-12-31T13:38:05.828Z,63.47
2022-12-31T13:39:30.705Z,63.79
2022-12-31T13:41:12.694Z,64.26
2022-12-31T13:42:25.603Z,64.42
2022-12-31T13:43:51.486Z,64.13
2022-12-31T13:45:16.649Z,63.77
2022-12-31T13:46:25.344Z,63.83
2022-12-31T13:47:38.978Z,63.78
2022-12-31T13:48:49.770Z,64.07
2022-12-31T13:50:03.392Z,64.52
2022-12-31T13:51:18.064Z,63.75
2022-12-31T13:52:30.973Z,64.16
2022-12-31T13:53:38.608Z,64.31
2022-12-31T13:55:09.509Z,63.28
2022-12-31T13:56:21.972Z,63.51
2022-12-31T13:57:42.025Z,63.05
2022-12-31T13:58:50.240Z,62.97
2022-12-31T13:59:59.323Z,63.06
2022-12-31T14:01:33.431Z,62.86
2022-12-31T14:02:47.980Z,62.89
2022-12-31T14:03:55.383Z,62.71
2022-12-31T14:05:25.281Z,62.34
2022-12-31T14:06:41.558Z,62.20
2022-12-31T14:07:54.419Z,61.74
2022-12-31T14:08:56.239Z,61.79
2022-12-31T14:09:58.630Z,61.77
2022-12-31T14:11:31.348Z,61.38
2022-12-31T14:12:40.786Z,61.53
2022-12-31T14:14:27.379Z,62.20
2022-12-31T14:15:35.979Z,61.76
2022-12-31T14:16:53.756Z,62.25
2022-12-31T14:18:16.590Z,62.99
2022-12-31T14:19:33.200Z,63.65
2022-12-31T14:20:48.933Z,63.71
2022-12-31T14:21:57.347Z,63.55
2022-12-31T14:23:31.138Z,63.43
2022-12-31T14:24:54.181Z,63.46
2022-12-31T14:26:03.181Z,63.88
2022-12-31T14:27:11.300Z,64.15
2022-12-31T14:28:30.610Z,63.74
2022-12-31T14:29:41.292Z,64.18
2022-12-31T14:30:44.688Z,64.72
2022-12-31T14:31:49.229Z,63.96
2022-12-31T14:33:17.661Z,64.65
2022-12-31T14:34:29.952Z,64.13
2022-12-31T14:35:55.659Z,64.27
2022-12-31T14:37:21.815Z,64.06
2022-12-31T14:38:38.280Z,63.79
2022-12-31T14:40:01.466Z,63.74
2022-12-31T14:41:28.655Z,63.14
2022-12-31T14:42:40.945Z,63.27
2022-12-31T14:43:58.774Z,62.94
2022-12-31T14:45:19.179Z,62.99
2022-12-31T14:46:38.767Z,63.10
2022-12-31T14:47:50.445Z,63.03
2022-12-31T14:49:32.454Z,63.28
2022-12-31T14:50:34.771Z,64.14
2022-12-31T14:51:37.609Z,64.00
2022-12-31T14:52:53.156Z,64.89
2022-12-31T14:53:56.986Z,64.54
2022-12-31T14:55:09.180Z,65.15
2022-12-31T14:56:34.153Z,65.76
2022-12-31T14:58:01.975Z,65.80
2022-12-31T14:59:02.871Z,66.17
2022-12-31T15:00:39.489Z,66.22
2022-12-31T15:01:47.045Z,66.62
2022-12-31T15:02:50.769Z,66.58
2022-12-31T15:03:57.349Z,67.23
2022-12-31T15:05:16.609Z,68.02
2022-12-31T15:06:24.126Z,67.66
2022-12-31T15:07:40.926Z,67.60
2022-12-31T15:09:07.615Z,68.61